Aeroporto :
LOGIN :

Iscrizione | Disclaimer

   EN    FR    IT 

 










Sommario :    VFR   VFR Marginale   IFR   IFR Intensivo   IFR Molto Intensivo
Visibilità : 
Base nubi : 
>= 8 km
>= 3000ft
5 / 8 km
1000 / 3000 ft
1500m / 5 km
500 / 1000 ft
800 / 1500m
200 / 500 ft
< 800m
< 200 ft
Simboli :   Temporali  Nebbia  Neve Forte  Precipitazioni Forti  Vento > 20 kt
SIGMETs :   Varie  Temporali  Ghiacco  Turbolenza  Onda orograficha  Ceneri Vulcaniche







- Altitudine del aeroporto : 640 ft
- Codice IATA : AOC


EDAC - Altenburg-Nobitz

ULTIMO METAR :
  • 181650Z 05010KT 030V090 CAVOK 18/02 Q1027

METARs OBSOLETI :
  • 181620Z 07009KT 350V120 CAVOK 19/01 Q1027
  • 181550Z 06010KT 020V090 CAVOK 19/01 Q1027
  • 181520Z 06008KT 020V110 CAVOK 20/02 Q1027
  • 181450Z 06011KT 010V120 CAVOK 19/01 Q1027
  • 181420Z 07011KT 040V110 CAVOK 19/01 Q1027

TAF TAF EDAC
Valido dal 18 a 15 ore il 19 a 00 ore UTC


181400Z 1815/1824 07010KT CAVOK
BECMG 1817/1819 08005KT
Nessun NOTAM noto per questo aeroporto.



MetMap, La meteo Aeronautica in un colpo d'occhio ! - Copyright ORBIFLY Dicembre 2007 - Disclaimer

ORBIFLY MET'MAP TEAM :

Programmazione e sviluppo : Alexandra Zaïnal
Concezione e sviluppo : Baudouin d'Aumeries
Co-Programmazione e sviluppo : Marc-Olivier Méhu
Supporto tecnico e logistico : Manuel Goepfert
Aiuto per la traduzione : Arnaldo La Scala

Contatto : metmap@orbifly.com




FONTI E CREDITI :

   NOAA